METAR Data
IDs: Format: Raw Decoded Include TAF

Data at: 0735 UTC 23 Feb 2019

KCZT 230715Z AUTO 00000KT 7SM SCT011 SCT014 OVC028 16/16 A2979 RMK AO2
KCZT 230655Z AUTO 00000KT 7SM BKN009 BKN014 OVC028 16/16 A2979 RMK AO2
KCZT 230635Z AUTO 00000KT 7SM OVC009 16/16 A2980 RMK AO2
KCZT 230615Z AUTO 22003KT 10SM OVC009 16/16 A2979 RMK AO2
KCZT 230555Z AUTO 15003KT 10SM OVC009 17/17 A2979 RMK AO2
KCZT 230535Z AUTO 00000KT 10SM BKN009 16/16 A2979 RMK AO2
KCZT 230515Z AUTO 15003KT 10SM BKN012 16/16 A2980 RMK AO2
KCZT 230455Z AUTO 12007KT 10SM BKN012 BKN022 16/16 A2979 RMK AO2
KCZT 230435Z AUTO 12005KT 10SM SCT015 BKN022 16/16 A2979 RMK AO2
KCZT 230415Z AUTO 12006KT 10SM BKN022 16/16 A2980 RMK AO2
KCZT 230355Z AUTO 12007KT 10SM SCT018 16/16 A2980 RMK AO2
KCZT 230335Z AUTO 12006KT 10SM CLR 16/15 A2980 RMK AO2
KCZT 230315Z AUTO 12007KT 10SM CLR 16/15 A2980 RMK AO2
KCZT 230255Z AUTO 11006KT 10SM CLR 17/15 A2980 RMK AO2
KCZT 230235Z AUTO 11006KT 10SM CLR 17/15 A2981 RMK AO2
KCZT 230215Z AUTO 11004KT 10SM CLR 17/15 A2981 RMK AO2
KCZT 230155Z AUTO 11003KT 10SM CLR 17/14 A2980 RMK AO2
KCZT 230135Z AUTO 11005KT 10SM CLR 17/14 A2979 RMK AO2
KCZT 230115Z AUTO 12005KT 10SM CLR 18/14 A2980 RMK AO2
KCZT 230055Z AUTO 12005KT 10SM CLR 19/14 A2980 RMK AO2
KCZT 230035Z AUTO 12005KT 10SM CLR 20/14 A2980 RMK AO2
KCZT 230015Z AUTO 13010G14KT 10SM CLR 20/14 A2979 RMK AO2
KCZT 222355Z AUTO 12010G14KT 10SM CLR 21/14 A2979 RMK AO2
KCZT 222335Z AUTO 13011KT 10SM CLR 21/14 A2979 RMK AO2
KCZT 222315Z AUTO 14009KT 10SM CLR 22/14 A2978 RMK AO2
KCZT 222255Z AUTO 15007KT 10SM CLR 22/14 A2979 RMK AO2
KCZT 222235Z AUTO 12006KT 10SM CLR 22/14 A2979 RMK AO2
KCZT 222215Z AUTO 14007KT 090V160 10SM CLR 22/14 A2980 RMK AO2
KCZT 222155Z AUTO 15007KT 10SM CLR 22/13 A2980 RMK AO2
KCZT 222135Z AUTO 18004KT 10SM SCT027 22/14 A2981 RMK AO2
KCZT 222115Z AUTO 16004KT 10SM SCT025 21/14 A2982 RMK AO2
KCZT 222055Z AUTO 18005KT 10SM BKN023 20/13 A2983 RMK AO2
KCZT 222035Z AUTO 16004KT 10SM OVC023 20/13 A2983 RMK AO2
KCZT 222015Z AUTO 13006KT 10SM OVC021 20/13 A2985 RMK AO2
KCZT 221955Z AUTO 00000KT 10SM OVC019 18/13 A2986 RMK AO2
KCZT 221935Z AUTO 15004KT 10SM OVC019 18/13 A2988 RMK AO2
KCZT 221915Z AUTO 20004KT 10SM OVC017 17/13 A2990 RMK AO2
KCZT 221855Z AUTO 00000KT 10SM OVC017 17/13 A2991 RMK AO2
KCZT 221835Z AUTO 00000KT 10SM OVC015 16/13 A2992 RMK AO2
KCZT 221815Z AUTO 14003KT 10SM OVC013 16/13 A2993 RMK AO2
KCZT 221755Z AUTO 00000KT 10SM OVC011 16/12 A2994 RMK AO2
KCZT 221735Z AUTO 11003KT 10SM OVC009 15/12 A2995 RMK AO2
KCZT 221715Z AUTO 00000KT 10SM OVC007 14/12 A2995 RMK AO2
KCZT 221655Z AUTO 10003KT 10SM OVC005 13/13 A2996 RMK AO2
KCZT 221635Z AUTO 10005KT 7SM OVC003 13/13 A2996 RMK AO2
KCZT 221615Z AUTO 10004KT 4SM BR OVC003 13/13 A2996 RMK AO2
KCZT 221555Z AUTO 09004KT 2 1/2SM BR OVC003 12/12 A2997 RMK AO2
KCZT 221535Z AUTO 08003KT 2SM BR OVC003 12/12 A2997 RMK AO2
KCZT 221515Z AUTO 00000KT 2SM BR OVC003 12/12 A2997 RMK AO2
KCZT 221455Z AUTO 05003KT 1 1/4SM BR OVC003 12/12 A2996 RMK AO2
KCZT 221435Z AUTO 00000KT 1 1/4SM BR OVC003 12/12 A2995 RMK AO2
KCZT 221415Z AUTO 09004KT 1 1/2SM BR OVC003 12/12 A2994 RMK AO2
KCZT 221355Z AUTO 11003KT 2SM BR OVC003 12/12 A2994 RMK AO2
KCZT 221335Z AUTO 10004KT 4SM BR OVC003 12/12 A2993 RMK AO2
KCZT 221315Z AUTO 10004KT 4SM BR OVC005 12/12 A2993 RMK AO2
KCZT 221255Z AUTO 10004KT 7SM OVC005 12/12 A2992 RMK AO2
KCZT 221235Z AUTO 00000KT 7SM OVC005 12/12 A2993 RMK AO2
KCZT 221215Z AUTO 00000KT 7SM OVC005 12/12 A2993 RMK AO2
KCZT 221155Z AUTO 00000KT 5SM BR OVC005 12/12 A2992 RMK AO2
KCZT 221135Z AUTO 09004KT 7SM OVC005 12/12 A2990 RMK AO2
KCZT 221115Z AUTO 10004KT 7SM OVC005 12/12 A2990 RMK AO2
KCZT 221055Z AUTO 10003KT 7SM OVC005 12/12 A2991 RMK AO2
KCZT 221035Z AUTO 08003KT 7SM OVC009 12/11 A2990 RMK AO2
KCZT 221015Z AUTO 10006KT 10SM OVC011 12/11 A2989 RMK AO2
KCZT 220955Z AUTO 09004KT 10SM OVC011 12/11 A2989 RMK AO2
KCZT 220935Z AUTO 08005KT 10SM OVC011 12/11 A2989 RMK AO2
KCZT 220915Z AUTO 09003KT 10SM OVC011 12/10 A2990 RMK AO2
KCZT 220855Z AUTO 08003KT 10SM OVC013 12/10 A2990 RMK AO2
KCZT 220835Z AUTO 08004KT 10SM OVC013 12/10 A2990 RMK AO2
KCZT 220815Z AUTO 10006KT 10SM OVC015 13/10 A2991 RMK AO2
KCZT 220755Z AUTO 12003KT 10SM OVC015 13/10 A2992 RMK AO2
KCZT 220735Z AUTO 00000KT 10SM OVC015 13/10 A2992 RMK AO2
KCZT 220715Z AUTO 09009KT 10SM OVC015 13/10 A2985 RMK AO2
KCZT 220655Z AUTO 11005KT 10SM BKN015 OVC032 13/10 A2988 RMK AO2
KCZT 220635Z AUTO 09009G14KT 10SM BKN015 OVC032 13/10 A2986 RMK AO2
KCZT 220615Z AUTO 10005KT 10SM OVC015 13/10 A2989 RMK AO2
KCZT 220555Z AUTO 11003KT 10SM OVC015 13/10 A2990 RMK AO2
KCZT 220535Z AUTO 10007KT 10SM SCT015 13/10 A2990 RMK AO2
KCZT 220515Z AUTO 11008KT 10SM CLR 13/11 A2989 RMK AO2
KCZT 220455Z AUTO 10008KT 10SM CLR 13/11 A2989 RMK AO2
KCZT 220435Z AUTO 10009KT 10SM CLR 13/11 A2990 RMK AO2
KCZT 220415Z AUTO 11006KT 10SM CLR 14/10 A2990 RMK AO2
KCZT 220355Z AUTO 10007KT 10SM CLR 14/10 A2988 RMK AO2
KCZT 220335Z AUTO 10007KT 10SM CLR 14/10 A2988 RMK AO2
KCZT 220315Z AUTO 10006KT 10SM CLR 15/10 A2989 RMK AO2
KCZT 220255Z AUTO 10004KT 10SM CLR 15/10 A2990 RMK AO2
KCZT 220235Z AUTO 11003KT 10SM CLR 15/11 A2988 RMK AO2
KCZT 220215Z AUTO 11004KT 10SM CLR 15/10 A2987 RMK AO2
KCZT 220155Z AUTO 10005KT 10SM CLR 15/10 A2986 RMK AO2
KCZT 220135Z AUTO 09005KT 10SM CLR 15/10 A2985 RMK AO2
KCZT 220115Z AUTO 09007KT 10SM CLR 16/10 A2983 RMK AO2
KCZT 220055Z AUTO 09005KT 10SM CLR 16/10 A2982 RMK AO2
KCZT 220035Z AUTO 10006KT 10SM CLR 16/10 A2981 RMK AO2
KCZT 220015Z AUTO 11012G17KT 10SM CLR 17/09 A2980 RMK AO2
KCZT 212355Z AUTO 11009KT 10SM CLR 17/09 A2980 RMK AO2
KCZT 212335Z AUTO 12012G17KT 10SM CLR 18/09 A2978 RMK AO2
KCZT 212315Z AUTO 10008KT 10SM CLR 18/08 A2979 RMK AO2
KCZT 212255Z AUTO 10005KT 10SM CLR 19/08 A2979 RMK AO2
KCZT 212235Z AUTO 11007G14KT 10SM CLR 19/08 A2979 RMK AO2
KCZT 212215Z AUTO 10008KT 10SM CLR 20/07 A2979 RMK AO2
KCZT 212155Z AUTO 11007G14KT 10SM CLR 20/06 A2978 RMK AO2
KCZT 212135Z AUTO 13010KT 10SM CLR 20/06 A2979 RMK AO2
KCZT 212115Z AUTO 07005KT 10SM CLR 21/06 A2979 RMK AO2
KCZT 212055Z AUTO 09006KT 10SM CLR 20/05 A2980 RMK AO2
KCZT 212035Z AUTO 12006KT 10SM CLR 20/05 A2981 RMK AO2
KCZT 212015Z AUTO 13005KT 10SM CLR 20/05 A2982 RMK AO2
KCZT 211955Z AUTO 14006KT 10SM CLR 19/05 A2984 RMK AO2